Time;durP1;ratioP1;P1;durP2;ratioP2;P2;SDS_P1;SDS_P2;PMS_P1;PMS_P2;Temp;Humidity;BMP_temperature;BMP_pressure;BME280_temperature;BME280_humidity;BME280_pressure;Samples;Min_cycle;Max_cycle;Signal;HPM_P1;HPM_P2
2021/06/12 00:02:57;;;;;;;41.97;29.33;;;;;;;;;;5002561;28;20057;-63
2021/06/12 00:06:02;;;;;;;41.35;30.52;;;;;;;;;;5002074;28;20053;-62
2021/06/12 00:09:00;;;;;;;38.17;29.58;;;;;;;;;;5016637;28;20050;-63
2021/06/12 00:12:06;;;;;;;39.42;30.20;;;;;;;;;;5003247;28;20050;-63
2021/06/12 00:15:12;;;;;;;41.42;30.05;;;;;;;;;;5001164;28;20081;-63
2021/06/12 00:18:12;;;;;;;40.22;30.05;;;;;;;;;;5017816;28;20117;-63
2021/06/12 00:20:59;;;;;;;38.65;29.65;;;;;;;;;;5015372;28;20058;-62
2021/06/12 00:23:45;;;;;;;39.40;30.98;;;;;;;;;;5014793;28;20062;-62
2021/06/12 00:26:31;;;;;;;43.17;30.95;;;;;;;;;;5015282;28;20057;-63
2021/06/12 00:29:17;;;;;;;39.35;29.63;;;;;;;;;;5015416;28;20049;-63
2021/06/12 00:32:05;;;;;;;35.55;27.90;;;;;;;;;;5015554;28;20077;-63
2021/06/12 00:34:52;;;;;;;36.78;28.77;;;;;;;;;;5014963;28;20046;-63
2021/06/12 00:37:39;;;;;;;37.08;28.92;;;;;;;;;;5015596;28;20119;-62
2021/06/12 00:40:33;;;;;;;39.42;28.58;;;;;;;;;;5014902;28;20046;-63
2021/06/12 00:43:19;;;;;;;34.40;26.90;;;;;;;;;;5015377;28;20054;-63
2021/06/12 00:46:04;;;;;;;37.60;28.33;;;;;;;;;;5013602;28;20053;-63
2021/06/12 00:49:02;;;;;;;35.22;26.45;;;;;;;;;;5019419;28;20041;-63
2021/06/12 00:51:48;;;;;;;38.03;27.42;;;;;;;;;;5016390;28;20054;-62
2021/06/12 00:54:35;;;;;;;34.35;25.63;;;;;;;;;;5013983;28;20189;-63
2021/06/12 00:57:21;;;;;;;37.95;26.58;;;;;;;;;;5013649;28;20057;-63
2021/06/12 01:00:07;;;;;;;34.15;25.92;;;;;;;;;;5013409;28;20052;-63
2021/06/12 01:02:55;;;;;;;40.97;29.35;;;;;;;;;;5014804;28;20060;-63
2021/06/12 01:05:42;;;;;;;35.75;27.42;;;;;;;;;;5015364;28;20042;-63
2021/06/12 01:08:41;;;;;;;36.80;26.80;;;;;;;;;;5018012;28;20049;-63
2021/06/12 01:11:45;;;;;;;33.60;26.08;;;;;;;;;;5017886;28;20073;-61
2021/06/12 01:14:32;;;;;;;33.90;26.42;;;;;;;;;;5015663;28;20132;-63
2021/06/12 01:17:54;;;;;;;37.53;27.58;;;;;;;;;;5013802;28;20050;-62
2021/06/12 01:21:00;;;;;;;37.65;26.50;;;;;;;;;;4999619;28;20054;-63
2021/06/12 01:24:05;;;;;;;40.90;26.70;;;;;;;;;;4999736;28;20520;-63
2021/06/12 01:27:22;;;;;;;35.42;26.63;;;;;;;;;;4999527;28;20050;-62
2021/06/12 01:30:31;;;;;;;38.20;26.63;;;;;;;;;;4989068;28;20519;-62
2021/06/12 01:33:36;;;;;;;39.60;27.83;;;;;;;;;;4989845;28;20046;-63
2021/06/12 01:36:42;;;;;;;35.08;27.42;;;;;;;;;;4989556;28;20050;-63
2021/06/12 01:39:47;;;;;;;37.15;26.73;;;;;;;;;;5010855;28;20065;-62
2021/06/12 01:42:53;;;;;;;39.58;27.92;;;;;;;;;;4999172;28;20045;-63
2021/06/12 01:45:58;;;;;;;39.97;29.20;;;;;;;;;;4999509;28;20049;-63
2021/06/12 01:49:04;;;;;;;42.83;29.65;;;;;;;;;;5012246;28;20050;-63
2021/06/12 01:52:09;;;;;;;46.70;30.83;;;;;;;;;;5000710;28;20096;-63
2021/06/12 01:55:15;;;;;;;40.20;29.95;;;;;;;;;;4999574;28;20064;-63
2021/06/12 01:58:24;;;;;;;41.72;30.13;;;;;;;;;;4999642;28;20532;-63
2021/06/12 02:01:29;;;;;;;49.47;33.67;;;;;;;;;;4999652;28;20050;-63
2021/06/12 02:04:36;;;;;;;51.33;33.45;;;;;;;;;;5000428;28;20049;-63
2021/06/12 02:07:41;;;;;;;49.15;33.45;;;;;;;;;;4997770;28;20052;-63
2021/06/12 02:10:47;;;;;;;53.58;37.25;;;;;;;;;;4998732;28;20488;-63
2021/06/12 02:13:53;;;;;;;55.85;35.13;;;;;;;;;;5000445;28;20050;-63
2021/06/12 02:16:58;;;;;;;54.35;36.22;;;;;;;;;;4999498;28;20050;-62
2021/06/12 02:20:04;;;;;;;61.33;38.65;;;;;;;;;;4980227;28;20054;-63
2021/06/12 02:23:09;;;;;;;57.50;38.20;;;;;;;;;;4979404;28;20106;-63
2021/06/12 02:26:15;;;;;;;59.63;39.33;;;;;;;;;;4978964;28;20500;-63
2021/06/12 02:29:20;;;;;;;62.25;39.97;;;;;;;;;;4990510;28;20054;-63
2021/06/12 02:32:25;;;;;;;58.70;40.28;;;;;;;;;;5009118;28;20065;-63
2021/06/12 02:35:31;;;;;;;72.85;44.40;;;;;;;;;;5012093;28;20504;-62
2021/06/12 02:38:37;;;;;;;63.10;40.35;;;;;;;;;;5000721;28;20467;-63
2021/06/12 02:41:42;;;;;;;64.65;42.10;;;;;;;;;;4998819;28;20053;-63
2021/06/12 02:44:47;;;;;;;66.15;42.83;;;;;;;;;;4998312;28;20049;-63
2021/06/12 02:47:53;;;;;;;69.80;44.17;;;;;;;;;;4976531;28;20407;-63
2021/06/12 02:50:59;;;;;;;68.47;42.38;;;;;;;;;;4978505;28;20046;-63
2021/06/12 02:54:04;;;;;;;65.93;41.97;;;;;;;;;;4978867;28;20081;-63
2021/06/12 02:57:10;;;;;;;62.00;41.53;;;;;;;;;;4978467;28;20489;-63
2021/06/12 03:00:15;;;;;;;68.60;44.58;;;;;;;;;;4990483;28;20053;-63
2021/06/12 03:03:20;;;;;;;72.03;44.97;;;;;;;;;;4998380;28;20045;-63
2021/06/12 03:06:26;;;;;;;72.20;45.70;;;;;;;;;;4998075;28;20113;-63
2021/06/12 03:09:14;;;;;;;74.90;47.08;;;;;;;;;;5010388;28;20058;-63
2021/06/12 03:12:00;;;;;;;72.88;45.33;;;;;;;;;;5011310;28;20476;-63
2021/06/12 03:15:07;;;;;;;77.30;49.60;;;;;;;;;;4997032;28;20612;-63
2021/06/12 03:17:53;;;;;;;82.80;50.13;;;;;;;;;;4997314;28;20129;-63
2021/06/12 03:20:51;;;;;;;74.50;48.17;;;;;;;;;;5010600;28;20061;-63
2021/06/12 03:23:56;;;;;;;81.95;50.72;;;;;;;;;;4998115;28;20149;-63
2021/06/12 03:27:02;;;;;;;82.45;50.55;;;;;;;;;;4997870;28;20144;-63
2021/06/12 03:29:55;;;;;;;82.75;49.92;;;;;;;;;;5009953;28;20062;-63
2021/06/12 03:32:41;;;;;;;82.63;52.42;;;;;;;;;;5011296;28;20431;-63
2021/06/12 03:35:26;;;;;;;85.20;53.45;;;;;;;;;;5012211;28;20393;-63
2021/06/12 03:38:11;;;;;;;86.10;55.45;;;;;;;;;;5011098;28;20054;-63
2021/06/12 03:41:17;;;;;;;80.45;52.90;;;;;;;;;;4996145;28;20570;-63
2021/06/12 03:44:03;;;;;;;80.13;51.95;;;;;;;;;;5025229;28;20056;-63
2021/06/12 03:46:49;;;;;;;83.25;52.67;;;;;;;;;;5024837;28;20060;-63
2021/06/12 03:49:45;;;;;;;85.45;54.78;;;;;;;;;;5022861;28;20065;-63
2021/06/12 03:52:50;;;;;;;78.45;51.70;;;;;;;;;;5008622;28;20060;-62
2021/06/12 03:55:56;;;;;;;81.32;50.67;;;;;;;;;;5000639;28;20058;-63
2021/06/12 03:59:01;;;;;;;72.43;49.42;;;;;;;;;;5000433;28;20050;-62
2021/06/12 04:02:06;;;;;;;70.15;47.40;;;;;;;;;;4980769;28;20053;-64
2021/06/12 04:05:11;;;;;;;62.17;45.08;;;;;;;;;;4981348;28;20043;-63
2021/06/12 04:08:16;;;;;;;62.85;42.63;;;;;;;;;;4980916;28;20046;-63
2021/06/12 04:11:02;;;;;;;60.83;41.85;;;;;;;;;;5009081;28;20046;-63
2021/06/12 04:13:47;;;;;;;51.88;37.20;;;;;;;;;;5015479;28;20050;-63
2021/06/12 04:16:36;;;;;;;48.55;37.33;;;;;;;;;;5015398;28;20073;-63
2021/06/12 04:19:41;;;;;;;54.30;35.47;;;;;;;;;;4998228;28;20112;-62
2021/06/12 04:22:47;;;;;;;47.38;35.92;;;;;;;;;;4998338;28;20046;-62
2021/06/12 04:25:52;;;;;;;43.83;32.33;;;;;;;;;;4999132;28;20057;-63
2021/06/12 04:28:57;;;;;;;43.10;32.00;;;;;;;;;;4998810;28;20144;-62
2021/06/12 04:32:02;;;;;;;40.22;30.42;;;;;;;;;;4999859;28;20080;-63
2021/06/12 04:35:07;;;;;;;44.35;31.27;;;;;;;;;;5001951;28;20054;-63
2021/06/12 04:38:13;;;;;;;36.63;28.20;;;;;;;;;;5001700;28;20097;-62
2021/06/12 04:41:19;;;;;;;38.45;28.15;;;;;;;;;;4999835;28;20046;-63
2021/06/12 04:44:24;;;;;;;36.63;27.58;;;;;;;;;;5000596;28;20049;-62
2021/06/12 04:47:29;;;;;;;35.47;26.23;;;;;;;;;;5000740;28;20054;-62
2021/06/12 04:50:17;;;;;;;36.78;26.52;;;;;;;;;;5014918;28;20054;-62
2021/06/12 04:53:02;;;;;;;34.78;25.00;;;;;;;;;;4995326;28;20050;-63
2021/06/12 04:56:08;;;;;;;33.78;23.58;;;;;;;;;;4980896;28;20144;-63
2021/06/12 04:58:53;;;;;;;28.95;23.52;;;;;;;;;;4995392;28;20047;-62
2021/06/12 05:01:39;;;;;;;28.85;22.92;;;;;;;;;;5000417;28;20056;-62
2021/06/12 05:04:24;;;;;;;30.05;22.92;;;;;;;;;;5014820;28;20050;-62
2021/06/12 05:07:13;;;;;;;27.85;21.48;;;;;;;;;;5014744;28;20053;-62
2021/06/12 05:10:00;;;;;;;29.83;22.42;;;;;;;;;;5013780;28;20056;-63
2021/06/12 05:12:46;;;;;;;31.52;20.77;;;;;;;;;;5014931;28;20058;-62
2021/06/12 05:15:33;;;;;;;27.85;20.30;;;;;;;;;;5014447;28;20574;-63
2021/06/12 05:18:21;;;;;;;27.58;20.17;;;;;;;;;;5014360;28;20046;-62
2021/06/12 05:21:10;;;;;;;26.05;17.20;;;;;;;;;;5013050;28;20128;-63
2021/06/12 05:23:55;;;;;;;22.48;17.35;;;;;;;;;;5014791;28;20389;-63
2021/06/12 05:26:41;;;;;;;24.45;15.95;;;;;;;;;;5015410;28;20050;-63
2021/06/12 05:29:26;;;;;;;22.13;14.82;;;;;;;;;;5014222;28;20421;-63
2021/06/12 05:32:14;;;;;;;17.25;14.52;;;;;;;;;;5013222;28;20046;-62
2021/06/12 05:35:01;;;;;;;20.10;14.88;;;;;;;;;;5014027;28;20620;-63
2021/06/12 05:37:46;;;;;;;16.73;13.85;;;;;;;;;;5013480;28;20140;-63
2021/06/12 05:40:33;;;;;;;20.25;14.43;;;;;;;;;;5013197;28;20540;-62
2021/06/12 05:43:19;;;;;;;18.42;13.30;;;;;;;;;;5014536;28;20092;-62
2021/06/12 05:46:04;;;;;;;20.05;13.43;;;;;;;;;;5012830;28;20069;-63
2021/06/12 05:48:49;;;;;;;18.85;11.88;;;;;;;;;;5013685;28;20069;-63
2021/06/12 05:51:35;;;;;;;19.48;12.55;;;;;;;;;;5010111;28;20514;-63
2021/06/12 05:54:20;;;;;;;14.93;10.52;;;;;;;;;;5012551;28;20180;-63
2021/06/12 05:57:06;;;;;;;19.67;10.10;;;;;;;;;;5016461;28;20042;-63
2021/06/12 05:59:51;;;;;;;18.58;11.02;;;;;;;;;;5015130;28;20120;-62
2021/06/12 06:02:46;;;;;;;19.15;10.63;;;;;;;;;;4997550;28;20070;-63
2021/06/12 06:05:31;;;;;;;18.33;10.30;;;;;;;;;;4999024;28;20054;-64
2021/06/12 06:08:17;;;;;;;12.75;8.93;;;;;;;;;;5015047;28;20046;-63
2021/06/12 06:11:05;;;;;;;13.68;9.30;;;;;;;;;;5015502;28;20053;-63
2021/06/12 06:13:53;;;;;;;14.63;8.68;;;;;;;;;;5017499;28;20046;-63
2021/06/12 06:16:38;;;;;;;13.20;8.27;;;;;;;;;;5016612;28;20140;-63
2021/06/12 06:19:24;;;;;;;13.02;8.95;;;;;;;;;;5015859;28;20042;-63
2021/06/12 06:22:10;;;;;;;11.70;8.45;;;;;;;;;;4999525;28;20054;-63
2021/06/12 06:24:57;;;;;;;13.55;8.82;;;;;;;;;;5013081;28;20050;-62
2021/06/12 06:27:50;;;;;;;9.85;7.57;;;;;;;;;;5013804;28;20056;-62
2021/06/12 06:30:40;;;;;;;13.13;8.02;;;;;;;;;;5012949;28;20050;-63
2021/06/12 06:33:26;;;;;;;10.00;7.28;;;;;;;;;;5013037;28;20073;-63
2021/06/12 06:36:21;;;;;;;9.45;6.65;;;;;;;;;;5013175;28;20408;-63
2021/06/12 06:39:08;;;;;;;9.38;5.50;;;;;;;;;;5013108;28;20511;-63
2021/06/12 06:41:54;;;;;;;8.75;6.38;;;;;;;;;;5012154;28;20527;-63
2021/06/12 06:44:39;;;;;;;8.05;5.22;;;;;;;;;;5013029;28;20567;-63
2021/06/12 06:47:25;;;;;;;6.43;4.72;;;;;;;;;;5010556;28;20114;-63
2021/06/12 06:50:11;;;;;;;6.60;5.65;;;;;;;;;;5011788;28;20499;-63
2021/06/12 06:53:17;;;;;;;7.47;5.28;;;;;;;;;;4978711;28;20089;-63
2021/06/12 06:56:05;;;;;;;7.03;4.97;;;;;;;;;;4992692;28;20157;-63
2021/06/12 06:58:50;;;;;;;7.47;5.13;;;;;;;;;;4997057;28;20517;-63
2021/06/12 07:01:37;;;;;;;11.00;5.47;;;;;;;;;;5010392;28;20054;-63
2021/06/12 07:04:22;;;;;;;8.98;4.63;;;;;;;;;;5012434;28;20488;-62
2021/06/12 07:07:08;;;;;;;8.75;4.55;;;;;;;;;;5012853;28;20118;-62
2021/06/12 07:09:53;;;;;;;6.80;4.30;;;;;;;;;;5012422;28;20056;-63
2021/06/12 07:12:39;;;;;;;6.53;3.83;;;;;;;;;;5010455;28;20129;-63
2021/06/12 07:15:24;;;;;;;9.45;4.38;;;;;;;;;;5012155;28;20543;-62
2021/06/12 07:18:25;;;;;;;5.38;3.38;;;;;;;;;;5010095;28;20042;-63
2021/06/12 07:21:11;;;;;;;4.25;3.15;;;;;;;;;;5009656;28;20064;-62
2021/06/12 07:23:56;;;;;;;6.85;3.90;;;;;;;;;;5011606;28;20049;-62
2021/06/12 07:26:45;;;;;;;5.18;3.42;;;;;;;;;;5010317;28;20170;-62
2021/06/12 07:29:31;;;;;;;7.82;3.28;;;;;;;;;;5011920;28;20116;-62
2021/06/12 07:32:17;;;;;;;5.97;3.83;;;;;;;;;;5010450;28;20042;-63
2021/06/12 07:35:02;;;;;;;7.18;3.30;;;;;;;;;;5012198;28;20563;-62
2021/06/12 07:37:48;;;;;;;7.00;2.88;;;;;;;;;;5012112;28;20100;-62
2021/06/12 07:40:33;;;;;;;5.35;2.92;;;;;;;;;;5011801;28;20141;-63
2021/06/12 07:43:19;;;;;;;6.90;3.00;;;;;;;;;;5011631;28;20080;-62
2021/06/12 07:46:05;;;;;;;5.50;2.70;;;;;;;;;;5012253;28;20061;-62
2021/06/12 07:48:50;;;;;;;7.10;3.05;;;;;;;;;;5011828;28;20041;-63
2021/06/12 07:51:36;;;;;;;5.85;3.53;;;;;;;;;;5010358;28;20056;-62
2021/06/12 07:54:21;;;;;;;6.70;3.45;;;;;;;;;;5011516;28;20092;-63
2021/06/12 07:57:06;;;;;;;7.05;3.75;;;;;;;;;;5009650;28;20100;-62
2021/06/12 07:59:52;;;;;;;12.35;4.38;;;;;;;;;;5010127;28;20050;-62
2021/06/12 08:02:38;;;;;;;6.90;2.83;;;;;;;;;;5011187;28;20148;-63
2021/06/12 08:05:24;;;;;;;3.92;2.97;;;;;;;;;;5011391;28;20619;-62
2021/06/12 08:08:09;;;;;;;7.35;2.58;;;;;;;;;;5015752;28;20496;-62
2021/06/12 08:10:55;;;;;;;6.85;2.97;;;;;;;;;;5015327;28;20053;-62
2021/06/12 08:13:41;;;;;;;6.60;2.97;;;;;;;;;;5015191;28;20049;-62
2021/06/12 08:16:26;;;;;;;4.90;2.80;;;;;;;;;;5015673;28;20422;-62
2021/06/12 08:19:12;;;;;;;6.55;3.00;;;;;;;;;;5015560;28;20049;-63
2021/06/12 08:21:57;;;;;;;6.95;2.67;;;;;;;;;;5015432;28;20053;-62
2021/06/12 08:24:42;;;;;;;6.72;3.00;;;;;;;;;;5014417;28;20056;-63
2021/06/12 08:27:28;;;;;;;7.55;2.83;;;;;;;;;;5015418;28;20112;-62
2021/06/12 08:30:14;;;;;;;6.60;2.67;;;;;;;;;;5015047;28;20050;-62
2021/06/12 08:32:59;;;;;;;7.13;3.10;;;;;;;;;;5015254;28;20492;-62
2021/06/12 08:35:44;;;;;;;10.40;3.20;;;;;;;;;;5015192;28;20515;-62
2021/06/12 08:38:30;;;;;;;7.18;2.88;;;;;;;;;;5015196;28;20041;-62
2021/06/12 08:41:16;;;;;;;7.05;3.08;;;;;;;;;;5014960;28;20061;-62
2021/06/12 08:44:01;;;;;;;9.75;2.88;;;;;;;;;;5014137;28;20164;-62
2021/06/12 08:46:47;;;;;;;5.75;2.90;;;;;;;;;;5014983;28;20133;-62
2021/06/12 08:49:33;;;;;;;7.72;2.72;;;;;;;;;;5027599;28;20416;-62
2021/06/12 08:52:18;;;;;;;10.40;3.22;;;;;;;;;;5014802;28;20630;-62
2021/06/12 08:55:07;;;;;;;6.65;2.88;;;;;;;;;;5013768;28;20053;-63
2021/06/12 08:57:52;;;;;;;7.70;2.78;;;;;;;;;;5014553;28;20542;-63
2021/06/12 09:00:38;;;;;;;6.43;2.92;;;;;;;;;;4996445;28;20155;-63
2021/06/12 09:03:24;;;;;;;6.32;2.58;;;;;;;;;;5013136;28;20072;-62
2021/06/12 09:06:12;;;;;;;7.65;2.80;;;;;;;;;;5012983;28;20046;-63
2021/06/12 09:08:58;;;;;;;4.55;2.05;;;;;;;;;;5012518;28;20048;-63
2021/06/12 09:11:43;;;;;;;9.85;2.42;;;;;;;;;;5012802;28;20048;-62
2021/06/12 09:14:29;;;;;;;6.75;2.95;;;;;;;;;;5013807;28;20046;-62
2021/06/12 09:17:15;;;;;;;7.32;2.17;;;;;;;;;;5013153;28;20062;-63
2021/06/12 09:20:01;;;;;;;5.80;2.25;;;;;;;;;;5014412;28;20057;-63
2021/06/12 09:22:46;;;;;;;4.88;1.98;;;;;;;;;;5014230;28;20423;-63
2021/06/12 09:25:39;;;;;;;8.20;2.08;;;;;;;;;;4999021;28;20054;-63
2021/06/12 09:28:24;;;;;;;8.15;2.33;;;;;;;;;;5013986;28;20050;-63
2021/06/12 09:31:28;;;;;;;7.28;2.25;;;;;;;;;;4996901;28;20097;-63
2021/06/12 09:34:14;;;;;;;5.13;2.15;;;;;;;;;;5014227;28;20128;-63
2021/06/12 09:36:59;;;;;;;5.32;2.00;;;;;;;;;;5013429;28;20041;-63
2021/06/12 09:39:56;;;;;;;6.78;2.38;;;;;;;;;;5024071;28;20072;-63
2021/06/12 09:42:42;;;;;;;10.77;2.72;;;;;;;;;;5010935;28;20052;-63
2021/06/12 09:45:31;;;;;;;7.20;2.70;;;;;;;;;;5011466;28;20041;-63
2021/06/12 09:48:17;;;;;;;5.80;2.15;;;;;;;;;;5013899;28;20050;-63
2021/06/12 09:51:10;;;;;;;5.97;2.30;;;;;;;;;;5012576;28;20484;-63
2021/06/12 09:53:57;;;;;;;9.60;2.28;;;;;;;;;;5013753;28;20063;-63
2021/06/12 09:56:42;;;;;;;9.15;3.20;;;;;;;;;;4998978;28;20385;-63
2021/06/12 09:59:28;;;;;;;5.70;1.80;;;;;;;;;;5013239;28;20132;-62
2021/06/12 10:02:13;;;;;;;4.15;2.00;;;;;;;;;;5011900;28;20419;-62
2021/06/12 10:04:59;;;;;;;5.60;2.13;;;;;;;;;;5016226;28;20131;-63
2021/06/12 10:07:44;;;;;;;7.00;2.10;;;;;;;;;;5015868;28;20149;-62
2021/06/12 10:10:30;;;;;;;7.20;2.10;;;;;;;;;;5014573;28;20418;-63
2021/06/12 10:13:15;;;;;;;3.50;1.30;;;;;;;;;;5015143;28;20049;-62
2021/06/12 10:16:01;;;;;;;6.72;2.30;;;;;;;;;;5002558;28;20044;-62
2021/06/12 10:18:46;;;;;;;6.10;1.77;;;;;;;;;;5017264;28;20096;-63
2021/06/12 10:21:31;;;;;;;3.60;1.27;;;;;;;;;;4998369;28;20515;-63
2021/06/12 10:24:20;;;;;;;7.55;1.27;;;;;;;;;;4992161;28;20500;-63
2021/06/12 10:27:08;;;;;;;5.38;1.20;;;;;;;;;;4992800;28;20683;-63
2021/06/12 10:29:54;;;;;;;6.22;1.33;;;;;;;;;;5004005;28;20080;-63
2021/06/12 10:32:45;;;;;;;5.45;1.73;;;;;;;;;;5014624;28;20416;-62
2021/06/12 10:35:30;;;;;;;5.25;1.42;;;;;;;;;;5016647;28;20046;-63
2021/06/12 10:38:16;;;;;;;2.00;1.02;;;;;;;;;;5015302;28;20046;-63
2021/06/12 10:41:02;;;;;;;3.85;1.50;;;;;;;;;;5015590;28;20049;-63
2021/06/12 10:43:47;;;;;;;5.00;1.50;;;;;;;;;;5014695;28;20076;-63
2021/06/12 10:46:33;;;;;;;6.13;1.25;;;;;;;;;;5015181;28;20090;-63
2021/06/12 10:49:28;;;;;;;3.72;1.42;;;;;;;;;;5019149;28;20042;-62
2021/06/12 10:52:14;;;;;;;5.45;1.15;;;;;;;;;;5016256;28;20065;-63
2021/06/12 10:54:59;;;;;;;7.13;1.88;;;;;;;;;;5030746;28;20108;-62
2021/06/12 10:57:44;;;;;;;8.65;1.67;;;;;;;;;;5030152;28;20045;-63
2021/06/12 11:00:29;;;;;;;4.75;1.80;;;;;;;;;;5017635;28;20042;-63
2021/06/12 11:03:35;;;;;;;3.22;1.20;;;;;;;;;;5016824;28;20050;-63
2021/06/12 11:06:45;;;;;;;5.20;1.40;;;;;;;;;;5017752;28;20057;-63
2021/06/12 11:09:32;;;;;;;4.88;1.20;;;;;;;;;;5019265;28;20042;-63
2021/06/12 11:12:17;;;;;;;3.28;1.52;;;;;;;;;;5015741;28;20050;-63
2021/06/12 11:15:04;;;;;;;6.20;1.45;;;;;;;;;;5015627;28;20050;-63
2021/06/12 11:18:08;;;;;;;3.97;1.40;;;;;;;;;;5018787;28;20053;-62
2021/06/12 11:20:59;;;;;;;3.00;1.10;;;;;;;;;;5015262;28;20057;-63
2021/06/12 11:23:45;;;;;;;4.28;1.10;;;;;;;;;;5012608;28;20056;-63
2021/06/12 11:26:46;;;;;;;4.45;1.25;;;;;;;;;;5012303;28;20045;-63
2021/06/12 11:29:32;;;;;;;6.13;1.33;;;;;;;;;;5010913;28;20104;-63
2021/06/12 11:32:29;;;;;;;6.90;1.85;;;;;;;;;;5008747;28;20435;-63
2021/06/12 11:35:34;;;;;;;6.35;1.40;;;;;;;;;;5009807;28;20144;-63
2021/06/12 11:38:20;;;;;;;5.20;1.33;;;;;;;;;;5009435;28;20076;-63
2021/06/12 11:41:12;;;;;;;4.05;1.30;;;;;;;;;;5012604;28;20057;-63
2021/06/12 11:43:59;;;;;;;;;;;;;;;;;;4997352;28;20060;-63
2021/06/12 11:46:44;;;;;;;4.13;1.13;;;;;;;;;;4996964;28;19929;-63
2021/06/12 11:49:30;;;;;;;2.72;0.77;;;;;;;;;;5009459;28;20064;-63
2021/06/12 11:52:17;;;;;;;4.30;1.20;;;;;;;;;;5011971;28;20136;-63
2021/06/12 11:55:15;;;;;;;3.42;0.60;;;;;;;;;;4999485;28;20132;-63
2021/06/12 11:58:00;;;;;;;4.20;0.80;;;;;;;;;;5013149;28;20046;-63
2021/06/12 12:00:49;;;;;;;3.90;1.13;;;;;;;;;;5010551;28;20052;-64
2021/06/12 12:03:34;;;;;;;4.65;1.15;;;;;;;;;;4997026;28;20510;-63
2021/06/12 12:06:19;;;;;;;2.90;0.90;;;;;;;;;;4989507;28;20436;-63
2021/06/12 12:09:05;;;;;;;5.10;1.52;;;;;;;;;;5004715;28;20058;-63
2021/06/12 12:11:51;;;;;;;4.75;1.05;;;;;;;;;;5012815;28;20069;-63
2021/06/12 12:14:38;;;;;;;3.85;0.80;;;;;;;;;;5012918;28;20084;-63
2021/06/12 12:17:27;;;;;;;4.05;1.00;;;;;;;;;;4994152;28;20042;-63
2021/06/12 12:20:12;;;;;;;3.00;0.70;;;;;;;;;;5011687;28;20057;-63
2021/06/12 12:22:58;;;;;;;3.15;1.00;;;;;;;;;;5012611;28;20125;-63
2021/06/12 12:25:43;;;;;;;7.07;0.80;;;;;;;;;;5013309;28;20057;-63
2021/06/12 12:28:28;;;;;;;6.68;1.40;;;;;;;;;;5001102;28;20499;-63
2021/06/12 12:32:32;;;;;;;4.05;0.93;;;;;;;;;;5109491;27;20405;-62
2021/06/12 12:35:18;;;;;;;5.40;1.10;;;;;;;;;;5099844;28;20039;-62
2021/06/12 12:38:19;;;;;;;4.53;1.13;;;;;;;;;;5086776;27;20055;-62
2021/06/12 12:41:05;;;;;;;4.20;0.90;;;;;;;;;;5062231;28;20510;-62
2021/06/12 12:44:04;;;;;;;6.93;1.30;;;;;;;;;;5062670;28;20044;-62
2021/06/12 12:46:49;;;;;;;7.25;1.02;;;;;;;;;;5066266;28;20048;-62
2021/06/12 12:49:34;;;;;;;7.30;1.05;;;;;;;;;;5065535;28;20044;-62
2021/06/12 12:52:26;;;;;;;6.22;1.00;;;;;;;;;;5062519;28;20110;-62
2021/06/12 12:55:12;;;;;;;;;;;;;;;;;;5058446;28;20083;-62
2021/06/12 12:57:57;;;;;;;4.03;1.25;;;;;;;;;;5058951;28;20017;-62
2021/06/12 13:00:43;;;;;;;9.10;1.17;;;;;;;;;;5062716;28;20407;-62
2021/06/12 13:03:28;;;;;;;6.50;1.60;;;;;;;;;;5064055;28;20059;-62
2021/06/12 13:06:32;;;;;;;5.55;1.45;;;;;;;;;;5044370;28;20056;-62
2021/06/12 13:09:19;;;;;;;5.95;1.38;;;;;;;;;;5044959;28;20144;-62
2021/06/12 13:12:06;;;;;;;4.90;1.40;;;;;;;;;;5045457;28;20052;-62
2021/06/12 13:14:58;;;;;;;4.90;1.38;;;;;;;;;;5061401;28;20565;-61
2021/06/12 13:17:43;;;;;;;5.60;1.48;;;;;;;;;;5051053;28;20052;-62
2021/06/12 13:20:29;;;;;;;6.88;1.63;;;;;;;;;;5044182;28;20053;-62
2021/06/12 13:23:23;;;;;;;9.60;1.23;;;;;;;;;;5045524;28;20120;-62
2021/06/12 13:26:21;;;;;;;4.88;1.23;;;;;;;;;;5059907;28;20049;-62
2021/06/12 13:29:22;;;;;;;4.95;1.33;;;;;;;;;;5059824;28;20435;-62
2021/06/12 13:32:11;;;;;;;7.53;1.80;;;;;;;;;;5064319;28;20041;-62
2021/06/12 13:34:56;;;;;;;10.98;1.88;;;;;;;;;;5064572;28;20057;-62
2021/06/12 13:37:42;;;;;;;10.80;1.63;;;;;;;;;;5065761;28;20048;-62
2021/06/12 13:40:28;;;;;;;4.40;1.63;;;;;;;;;;5063256;28;20063;-61
2021/06/12 13:43:16;;;;;;;6.60;1.25;;;;;;;;;;5055303;28;20522;-62
2021/06/12 13:46:17;;;;;;;4.15;1.55;;;;;;;;;;5050228;28;20045;-62
2021/06/12 13:49:03;;;;;;;6.97;1.63;;;;;;;;;;5051474;28;20041;-62
2021/06/12 13:51:48;;;;;;;5.20;1.27;;;;;;;;;;5036838;28;20052;-62
2021/06/12 13:54:35;;;;;;;5.95;1.00;;;;;;;;;;5052250;28;20211;-62
2021/06/12 13:57:20;;;;;;;6.88;0.90;;;;;;;;;;5050871;28;20044;-62
2021/06/12 14:00:06;;;;;;;10.40;1.30;;;;;;;;;;5050843;28;20064;-62
2021/06/12 14:02:57;;;;;;;3.17;0.88;;;;;;;;;;5052228;28;20076;-61
2021/06/12 14:05:43;;;;;;;8.38;1.20;;;;;;;;;;5055198;28;20056;-62
2021/06/12 14:08:28;;;;;;;7.05;1.33;;;;;;;;;;5036017;28;20053;-62
2021/06/12 14:11:13;;;;;;;8.10;1.50;;;;;;;;;;5044076;28;20187;-62
2021/06/12 14:13:58;;;;;;;7.55;1.55;;;;;;;;;;5045914;28;20808;-62
2021/06/12 14:16:44;;;;;;;5.70;1.48;;;;;;;;;;5048414;28;20414;-62
2021/06/12 14:19:29;;;;;;;6.30;1.65;;;;;;;;;;5044294;28;20035;-62
2021/06/12 14:22:14;;;;;;;6.53;2.22;;;;;;;;;;5040075;28;20524;-61
2021/06/12 14:25:00;;;;;;;6.35;1.75;;;;;;;;;;5035405;28;20049;-61
2021/06/12 14:27:45;;;;;;;8.27;1.55;;;;;;;;;;5044911;28;20099;-62
2021/06/12 14:30:30;;;;;;;6.88;1.67;;;;;;;;;;5048937;28;20064;-62
2021/06/12 14:33:15;;;;;;;8.88;1.90;;;;;;;;;;5054986;28;20064;-62
2021/06/12 14:36:01;;;;;;;5.07;1.98;;;;;;;;;;5055198;28;20072;-62
2021/06/12 14:38:46;;;;;;;8.05;2.05;;;;;;;;;;5055238;28;20549;-62
2021/06/12 14:41:31;;;;;;;9.88;3.10;;;;;;;;;;5054986;28;20049;-62
2021/06/12 14:44:18;;;;;;;5.03;2.00;;;;;;;;;;5054642;28;20045;-61
2021/06/12 14:47:03;;;;;;;6.35;2.38;;;;;;;;;;5052111;28;20040;-61
2021/06/12 14:49:49;;;;;;;6.13;2.15;;;;;;;;;;5055038;28;20055;-62
2021/06/12 14:52:34;;;;;;;9.90;2.63;;;;;;;;;;5054247;28;20441;-62
2021/06/12 14:55:19;;;;;;;4.50;1.70;;;;;;;;;;5051091;28;20047;-61
2021/06/12 14:58:04;;;;;;;7.85;2.30;;;;;;;;;;5032468;28;20726;-63
2021/06/12 15:00:50;;;;;;;7.75;2.35;;;;;;;;;;5039592;28;20049;-64
2021/06/12 15:03:36;;;;;;;8.50;3.03;;;;;;;;;;5052284;28;20051;-64
2021/06/12 15:06:21;;;;;;;9.35;3.13;;;;;;;;;;5048458;28;20057;-63
2021/06/12 15:09:06;;;;;;;11.07;3.08;;;;;;;;;;5048688;28;20094;-63
2021/06/12 15:11:52;;;;;;;10.73;3.58;;;;;;;;;;5049495;28;20556;-64
2021/06/12 15:14:37;;;;;;;11.07;3.03;;;;;;;;;;5046864;28;20055;-63
2021/06/12 15:17:23;;;;;;;7.20;2.95;;;;;;;;;;5050604;28;20051;-63
2021/06/12 15:20:08;;;;;;;5.85;2.70;;;;;;;;;;5052597;28;20051;-65
2021/06/12 15:22:54;;;;;;;8.00;2.75;;;;;;;;;;5055623;28;20071;-62
2021/06/12 15:25:39;;;;;;;7.32;3.30;;;;;;;;;;5051449;28;20053;-64
2021/06/12 15:28:25;;;;;;;7.80;2.70;;;;;;;;;;5044759;28;20080;-64
2021/06/12 15:31:10;;;;;;;10.48;2.65;;;;;;;;;;5048764;28;20146;-64
2021/06/12 15:33:55;;;;;;;10.40;3.10;;;;;;;;;;5050400;28;20423;-64
2021/06/12 15:36:41;;;;;;;9.10;3.15;;;;;;;;;;5049362;28;20064;-64
2021/06/12 15:39:26;;;;;;;6.35;2.80;;;;;;;;;;5049512;28;20507;-64
2021/06/12 15:42:11;;;;;;;7.30;2.78;;;;;;;;;;5049117;28;20055;-64
2021/06/12 15:44:57;;;;;;;12.60;3.10;;;;;;;;;;5041295;28;20053;-64
2021/06/12 15:47:43;;;;;;;8.05;3.28;;;;;;;;;;5048005;28;20049;-64
2021/06/12 15:50:29;;;;;;;11.35;3.05;;;;;;;;;;5046035;28;20059;-64
2021/06/12 15:53:14;;;;;;;9.88;3.25;;;;;;;;;;5047324;28;20047;-64
2021/06/12 15:56:00;;;;;;;11.95;3.60;;;;;;;;;;5047509;28;20052;-64
2021/06/12 15:58:46;;;;;;;6.32;2.50;;;;;;;;;;5048594;28;20068;-64
2021/06/12 16:01:31;;;;;;;9.95;2.83;;;;;;;;;;5044481;28;20122;-64
2021/06/12 16:04:16;;;;;;;11.65;2.92;;;;;;;;;;5029102;28;20045;-64
2021/06/12 16:07:02;;;;;;;7.32;2.20;;;;;;;;;;5029060;28;20057;-63
2021/06/12 16:09:47;;;;;;;6.60;2.35;;;;;;;;;;5047223;28;20427;-63
2021/06/12 16:12:35;;;;;;;7.18;2.40;;;;;;;;;;5049647;28;20526;-63
2021/06/12 16:15:21;;;;;;;12.02;2.63;;;;;;;;;;5029268;28;20080;-63
2021/06/12 16:18:06;;;;;;;6.88;2.25;;;;;;;;;;5030272;28;20060;-63
2021/06/12 16:20:52;;;;;;;14.20;3.40;;;;;;;;;;5048883;28;20487;-63
2021/06/12 16:23:37;;;;;;;10.00;3.05;;;;;;;;;;5049855;28;20122;-63
2021/06/12 16:26:22;;;;;;;9.15;2.83;;;;;;;;;;5049766;28;20055;-63
2021/06/12 16:29:07;;;;;;;12.05;3.20;;;;;;;;;;5043267;28;20052;-63
2021/06/12 16:31:53;;;;;;;11.45;3.83;;;;;;;;;;5049608;28;20052;-63
2021/06/12 16:34:38;;;;;;;11.07;3.15;;;;;;;;;;5050291;28;20530;-64
2021/06/12 16:37:23;;;;;;;10.75;3.03;;;;;;;;;;5050350;28;20407;-63
2021/06/12 16:40:09;;;;;;;7.70;2.50;;;;;;;;;;5045922;28;20049;-64
2021/06/12 16:42:55;;;;;;;8.77;2.92;;;;;;;;;;5047017;28;20049;-63
2021/06/12 16:45:40;;;;;;;9.18;2.85;;;;;;;;;;5049922;28;20510;-64
2021/06/12 16:48:25;;;;;;;8.43;2.65;;;;;;;;;;5049841;28;20411;-63
2021/06/12 16:51:11;;;;;;;6.97;2.83;;;;;;;;;;5047720;28;20565;-64
2021/06/12 16:53:57;;;;;;;9.50;3.38;;;;;;;;;;5049442;28;20060;-63